Time;durP1;ratioP1;P1;durP2;ratioP2;P2;SDS_P1;SDS_P2;PMS_P1;PMS_P2;Temp;Humidity;BMP_temperature;BMP_pressure;BME280_temperature;BME280_humidity;BME280_pressure;Samples;Min_cycle;Max_cycle;Signal;HPM_P1;HPM_P2
2020/12/24 00:02:27;;;;;;;3.10;2.60;;;;;;;;;;5094488;28;20452;-72
2020/12/24 00:04:54;;;;;;;4.03;2.13;;;;;;;;;;5095160;28;20551;-72
2020/12/24 00:07:34;;;;;;;3.00;2.40;;;;;;;;;;5097038;28;20451;-72
2020/12/24 00:10:02;;;;;;;3.20;2.60;;;;;;;;;;5094786;28;20561;-72
2020/12/24 00:12:29;;;;;;;2.70;2.33;;;;;;;;;;5096089;28;20456;-73
2020/12/24 00:14:56;;;;;;;2.97;2.10;;;;;;;;;;5098350;28;20468;-73
2020/12/24 00:17:24;;;;;;;2.53;2.07;;;;;;;;;;5099760;28;20456;-73
2020/12/24 00:19:52;;;;;;;3.50;2.53;;;;;;;;;;5099342;28;20915;-73
2020/12/24 00:22:19;;;;;;;2.70;2.13;;;;;;;;;;5099177;28;20864;-73
2020/12/24 00:24:46;;;;;;;2.20;1.80;;;;;;;;;;5098876;28;20541;-73
2020/12/24 00:27:14;;;;;;;2.93;2.30;;;;;;;;;;5098607;28;20464;-73
2020/12/24 00:29:41;;;;;;;2.67;2.10;;;;;;;;;;5098518;28;20512;-73
2020/12/24 00:32:09;;;;;;;3.13;2.33;;;;;;;;;;5098909;28;20458;-73
2020/12/24 00:34:36;;;;;;;3.13;2.27;;;;;;;;;;5099189;28;20540;-73
2020/12/24 00:37:04;;;;;;;2.57;2.23;;;;;;;;;;5098829;28;20453;-72
2020/12/24 00:39:31;;;;;;;3.40;2.60;;;;;;;;;;5098601;28;20537;-72
2020/12/24 00:41:59;;;;;;;3.23;2.40;;;;;;;;;;5098900;28;20738;-72
2020/12/24 00:44:26;;;;;;;3.20;2.50;;;;;;;;;;5098096;28;20456;-73
2020/12/24 00:46:53;;;;;;;8.17;2.87;;;;;;;;;;5098633;28;20452;-72
2020/12/24 00:49:20;;;;;;;3.53;2.63;;;;;;;;;;5098630;28;20492;-73
2020/12/24 00:51:48;;;;;;;3.07;2.57;;;;;;;;;;5098721;28;20735;-73
2020/12/24 00:54:16;;;;;;;3.40;2.67;;;;;;;;;;5098387;28;20460;-73
2020/12/24 00:56:43;;;;;;;3.67;2.90;;;;;;;;;;5097733;28;20800;-73
2020/12/24 00:59:10;;;;;;;3.87;3.27;;;;;;;;;;5098401;28;20462;-73
2020/12/24 01:01:38;;;;;;;3.93;2.17;;;;;;;;;;5098327;28;20529;-73
2020/12/24 01:04:05;;;;;;;3.63;3.10;;;;;;;;;;5099374;28;20872;-73
2020/12/24 01:06:32;;;;;;;2.97;2.37;;;;;;;;;;5098664;28;20764;-73
2020/12/24 01:09:01;;;;;;;4.00;2.70;;;;;;;;;;5097867;28;20580;-73
2020/12/24 01:11:29;;;;;;;3.47;2.43;;;;;;;;;;5098036;28;20452;-73
2020/12/24 01:13:57;;;;;;;3.30;2.60;;;;;;;;;;5098099;28;20468;-73
2020/12/24 01:16:24;;;;;;;4.00;2.87;;;;;;;;;;5097607;28;20463;-73
2020/12/24 01:18:51;;;;;;;4.20;3.17;;;;;;;;;;5098448;28;20497;-73
2020/12/24 01:21:19;;;;;;;3.60;2.83;;;;;;;;;;5097626;28;20528;-73
2020/12/24 01:23:46;;;;;;;3.83;3.20;;;;;;;;;;5098457;28;20460;-73
2020/12/24 01:26:13;;;;;;;3.27;2.67;;;;;;;;;;5097881;28;20452;-73
2020/12/24 01:28:41;;;;;;;3.40;2.70;;;;;;;;;;5097458;28;20460;-73
2020/12/24 01:31:09;;;;;;;3.80;3.13;;;;;;;;;;5098249;28;20463;-73
2020/12/24 01:33:36;;;;;;;4.40;3.30;;;;;;;;;;5097914;28;20460;-73
2020/12/24 01:36:03;;;;;;;4.83;3.23;;;;;;;;;;5097505;28;20711;-73
2020/12/24 01:38:31;;;;;;;3.97;3.37;;;;;;;;;;5097279;28;20464;-72
2020/12/24 01:40:58;;;;;;;3.77;3.00;;;;;;;;;;5097809;28;20452;-73
2020/12/24 01:43:26;;;;;;;4.40;3.40;;;;;;;;;;5097295;28;20474;-73
2020/12/24 01:45:54;;;;;;;4.17;3.37;;;;;;;;;;5097642;28;20452;-73
2020/12/24 01:48:22;;;;;;;6.03;3.40;;;;;;;;;;5097408;28;20471;-72
2020/12/24 01:50:49;;;;;;;4.00;3.00;;;;;;;;;;5097432;28;20498;-72
2020/12/24 01:53:20;;;;;;;3.50;2.97;;;;;;;;;;5097348;28;20463;-73
2020/12/24 01:55:48;;;;;;;3.43;2.67;;;;;;;;;;5097044;28;20460;-73
2020/12/24 01:58:16;;;;;;;4.40;3.33;;;;;;;;;;5097355;28;20532;-73
2020/12/24 02:00:46;;;;;;;4.87;4.37;;;;;;;;;;5096967;28;20460;-73
2020/12/24 02:03:14;;;;;;;6.13;3.50;;;;;;;;;;5096986;28;20540;-73
2020/12/24 02:05:41;;;;;;;4.50;3.53;;;;;;;;;;5096960;28;20468;-73
2020/12/24 02:08:09;;;;;;;5.13;3.80;;;;;;;;;;5096684;28;20468;-73
2020/12/24 02:10:42;;;;;;;7.43;4.60;;;;;;;;;;5096890;28;20926;-73
2020/12/24 02:13:09;;;;;;;6.33;4.43;;;;;;;;;;5097254;28;20484;-73
2020/12/24 02:15:36;;;;;;;4.40;3.27;;;;;;;;;;5095634;28;20746;-73
2020/12/24 02:18:04;;;;;;;4.37;3.70;;;;;;;;;;5096943;28;20468;-73
2020/12/24 02:20:32;;;;;;;3.93;3.30;;;;;;;;;;5096781;28;20456;-73
2020/12/24 02:23:00;;;;;;;4.77;3.50;;;;;;;;;;5097080;28;20471;-73
2020/12/24 02:25:28;;;;;;;4.87;3.20;;;;;;;;;;5096494;28;20460;-73
2020/12/24 02:27:55;;;;;;;5.73;3.87;;;;;;;;;;5096946;28;20456;-73
2020/12/24 02:30:22;;;;;;;5.13;3.97;;;;;;;;;;5096493;28;20488;-73
2020/12/24 02:32:49;;;;;;;4.57;3.60;;;;;;;;;;5096704;28;20460;-73
2020/12/24 02:35:18;;;;;;;4.23;3.70;;;;;;;;;;5096826;28;20465;-73
2020/12/24 02:37:46;;;;;;;6.00;4.77;;;;;;;;;;5096464;28;20934;-73
2020/12/24 02:40:14;;;;;;;5.60;4.80;;;;;;;;;;5096058;28;20463;-73
2020/12/24 02:42:42;;;;;;;6.83;5.93;;;;;;;;;;5096426;28;20448;-73
2020/12/24 02:45:09;;;;;;;6.60;4.97;;;;;;;;;;5096422;28;20479;-73
2020/12/24 02:47:37;;;;;;;6.43;4.93;;;;;;;;;;5096664;28;20452;-72
2020/12/24 02:50:05;;;;;;;5.40;4.50;;;;;;;;;;5095585;28;20762;-73
2020/12/24 02:52:32;;;;;;;6.93;5.40;;;;;;;;;;5096204;28;20537;-73
2020/12/24 02:55:00;;;;;;;5.50;4.47;;;;;;;;;;5096043;28;20494;-73
2020/12/24 02:57:29;;;;;;;6.77;5.23;;;;;;;;;;5096316;28;20448;-73
2020/12/24 02:59:56;;;;;;;6.37;5.20;;;;;;;;;;5096550;28;20467;-73
2020/12/24 03:02:23;;;;;;;5.40;4.30;;;;;;;;;;5096054;28;20460;-73
2020/12/24 03:04:51;;;;;;;5.93;4.83;;;;;;;;;;5096330;28;20460;-73
2020/12/24 03:07:18;;;;;;;5.23;4.20;;;;;;;;;;5095958;28;20467;-73
2020/12/24 03:09:45;;;;;;;6.50;4.93;;;;;;;;;;5096283;28;20491;-73
2020/12/24 03:12:13;;;;;;;5.80;4.10;;;;;;;;;;5096167;28;20456;-73
2020/12/24 03:14:41;;;;;;;5.73;4.03;;;;;;;;;;5096530;28;20472;-73
2020/12/24 03:17:08;;;;;;;7.17;4.37;;;;;;;;;;5096378;28;20464;-73
2020/12/24 03:19:35;;;;;;;6.37;4.77;;;;;;;;;;5096103;28;20839;-73
2020/12/24 03:22:03;;;;;;;7.60;4.10;;;;;;;;;;5095974;28;20458;-73
2020/12/24 03:24:30;;;;;;;5.83;3.73;;;;;;;;;;5096474;28;20464;-72
2020/12/24 03:26:57;;;;;;;5.67;3.70;;;;;;;;;;5096016;28;20460;-72
2020/12/24 03:29:24;;;;;;;6.50;3.87;;;;;;;;;;5096006;28;20499;-73
2020/12/24 03:31:53;;;;;;;5.30;3.43;;;;;;;;;;5096113;28;20452;-73
2020/12/24 03:34:20;;;;;;;4.30;3.17;;;;;;;;;;5095862;28;20554;-73
2020/12/24 03:36:47;;;;;;;4.80;3.13;;;;;;;;;;5095808;28;20856;-73
2020/12/24 03:39:14;;;;;;;4.40;3.10;;;;;;;;;;5096588;28;20468;-73
2020/12/24 03:41:42;;;;;;;4.57;2.90;;;;;;;;;;5096143;28;20451;-73
2020/12/24 03:44:09;;;;;;;4.47;2.60;;;;;;;;;;5096230;28;20468;-73
2020/12/24 03:46:38;;;;;;;3.60;2.30;;;;;;;;;;5095897;28;20482;-73
2020/12/24 03:49:06;;;;;;;4.60;2.83;;;;;;;;;;5097933;28;20548;-72
2020/12/24 03:51:34;;;;;;;4.60;2.30;;;;;;;;;;5099787;28;20456;-72
2020/12/24 03:54:01;;;;;;;4.10;2.50;;;;;;;;;;5099899;28;20535;-72
2020/12/24 03:56:31;;;;;;;3.60;3.00;;;;;;;;;;5099738;28;20964;-73
2020/12/24 03:58:59;;;;;;;3.47;2.40;;;;;;;;;;5098971;28;20498;-73
2020/12/24 04:01:26;;;;;;;5.07;3.70;;;;;;;;;;5099468;28;20463;-73
2020/12/24 04:03:54;;;;;;;3.10;2.60;;;;;;;;;;5099340;28;20468;-72
2020/12/24 04:06:22;;;;;;;3.60;2.50;;;;;;;;;;5099280;28;20456;-72
2020/12/24 04:08:49;;;;;;;6.07;3.47;;;;;;;;;;5098714;28;20487;-72
2020/12/24 04:11:16;;;;;;;4.50;3.47;;;;;;;;;;5099243;28;20452;-72
2020/12/24 04:13:44;;;;;;;6.23;3.70;;;;;;;;;;5099248;28;20451;-72
2020/12/24 04:16:11;;;;;;;5.00;3.57;;;;;;;;;;5099169;28;20456;-73
2020/12/24 04:18:38;;;;;;;4.57;3.20;;;;;;;;;;5099026;28;20805;-72
2020/12/24 04:21:05;;;;;;;8.27;4.00;;;;;;;;;;5098518;28;20634;-73
2020/12/24 04:23:34;;;;;;;4.40;3.40;;;;;;;;;;5098486;28;20472;-72
2020/12/24 04:26:02;;;;;;;4.03;2.83;;;;;;;;;;5099097;28;20817;-73
2020/12/24 04:28:29;;;;;;;3.70;2.23;;;;;;;;;;5099083;28;20456;-73
2020/12/24 04:30:56;;;;;;;4.90;3.07;;;;;;;;;;5098558;28;20499;-72
2020/12/24 04:33:23;;;;;;;3.73;2.33;;;;;;;;;;5098242;28;20863;-71
2020/12/24 04:35:53;;;;;;;3.57;2.60;;;;;;;;;;5098616;28;20488;-73
2020/12/24 04:38:21;;;;;;;5.10;2.30;;;;;;;;;;5098647;28;20463;-73
2020/12/24 04:40:51;;;;;;;4.70;3.27;;;;;;;;;;5098872;28;20460;-72
2020/12/24 04:43:18;;;;;;;3.80;2.83;;;;;;;;;;5098653;28;20455;-72
2020/12/24 04:45:48;;;;;;;3.60;2.50;;;;;;;;;;5098569;28;20452;-72
2020/12/24 04:48:16;;;;;;;2.90;2.20;;;;;;;;;;5098387;28;20507;-72
2020/12/24 04:50:46;;;;;;;3.50;2.50;;;;;;;;;;5098291;28;20476;-72
2020/12/24 04:53:13;;;;;;;3.27;2.60;;;;;;;;;;5098380;28;20460;-73
2020/12/24 04:55:40;;;;;;;4.93;3.30;;;;;;;;;;5097871;28;20870;-73
2020/12/24 04:58:10;;;;;;;4.93;3.23;;;;;;;;;;5098689;28;20960;-73
2020/12/24 05:00:39;;;;;;;3.63;2.63;;;;;;;;;;5097436;28;20483;-73
2020/12/24 05:03:09;;;;;;;5.17;3.33;;;;;;;;;;5098007;28;20540;-75
2020/12/24 05:05:37;;;;;;;4.13;3.07;;;;;;;;;;5098281;28;20745;-73
2020/12/24 05:08:05;;;;;;;5.53;2.80;;;;;;;;;;5098485;28;20464;-73
2020/12/24 05:10:33;;;;;;;5.87;3.37;;;;;;;;;;5097537;28;20492;-74
2020/12/24 05:13:15;;;;;;;3.80;2.50;;;;;;;;;;5097928;28;20891;-73
2020/12/24 05:15:43;;;;;;;5.00;3.33;;;;;;;;;;5096999;28;20448;-73
2020/12/24 05:18:14;;;;;;;3.73;2.87;;;;;;;;;;5097641;28;20861;-73
2020/12/24 05:20:42;;;;;;;4.90;2.83;;;;;;;;;;5097980;28;20460;-73
2020/12/24 05:23:12;;;;;;;5.70;2.70;;;;;;;;;;5099361;28;20736;-74
2020/12/24 05:25:40;;;;;;;3.60;2.13;;;;;;;;;;5098303;28;20737;-73
2020/12/24 05:28:08;;;;;;;5.80;3.10;;;;;;;;;;5099570;28;20469;-73
2020/12/24 05:30:37;;;;;;;3.20;2.13;;;;;;;;;;5096455;28;20549;-73
2020/12/24 05:33:05;;;;;;;3.07;2.10;;;;;;;;;;5097996;28;20876;-73
2020/12/24 05:35:32;;;;;;;2.87;1.77;;;;;;;;;;5098069;28;20456;-73
2020/12/24 05:37:59;;;;;;;5.10;2.80;;;;;;;;;;5097453;28;20494;-73
2020/12/24 05:40:27;;;;;;;2.60;1.30;;;;;;;;;;5096885;28;20525;-73
2020/12/24 05:42:56;;;;;;;2.17;1.13;;;;;;;;;;5097318;28;20516;-73
2020/12/24 05:45:23;;;;;;;2.50;1.33;;;;;;;;;;5097304;28;20699;-73
2020/12/24 05:48:07;;;;;;;2.37;1.53;;;;;;;;;;5097222;28;20448;-72
2020/12/24 05:50:35;;;;;;;2.20;1.07;;;;;;;;;;5094045;28;20498;-73
2020/12/24 05:53:07;;;;;;;3.37;0.97;;;;;;;;;;5097278;28;20497;-72
2020/12/24 05:55:34;;;;;;;1.80;0.87;;;;;;;;;;5097464;28;20937;-72
2020/12/24 05:58:02;;;;;;;1.57;0.77;;;;;;;;;;5096962;28;20536;-72
2020/12/24 06:00:33;;;;;;;2.10;0.90;;;;;;;;;;5097437;28;20517;-72
2020/12/24 06:03:18;;;;;;;1.50;0.70;;;;;;;;;;5096214;28;20459;-72
2020/12/24 06:05:56;;;;;;;1.60;0.53;;;;;;;;;;5097069;28;20452;-72
2020/12/24 06:08:25;;;;;;;1.77;0.60;;;;;;;;;;5096962;28;20776;-72
2020/12/24 06:11:02;;;;;;;1.30;0.50;;;;;;;;;;5096080;28;20488;-72
2020/12/24 06:13:36;;;;;;;1.30;0.50;;;;;;;;;;5098081;28;20467;-72
2020/12/24 06:16:04;;;;;;;2.43;0.60;;;;;;;;;;5097215;28;20456;-72
2020/12/24 06:18:32;;;;;;;1.90;0.57;;;;;;;;;;5097408;28;20464;-72
2020/12/24 06:21:01;;;;;;;1.27;0.50;;;;;;;;;;5096990;28;20456;-72
2020/12/24 06:23:32;;;;;;;1.30;0.60;;;;;;;;;;5096288;28;20472;-72
2020/12/24 06:26:02;;;;;;;1.30;0.50;;;;;;;;;;5096543;28;20539;-72
2020/12/24 06:28:31;;;;;;;1.73;0.60;;;;;;;;;;5096319;28;20471;-72
2020/12/24 06:30:59;;;;;;;1.20;0.50;;;;;;;;;;5096370;28;20480;-72
2020/12/24 06:33:27;;;;;;;1.20;0.50;;;;;;;;;;5095610;28;20459;-72
2020/12/24 06:35:55;;;;;;;1.20;0.50;;;;;;;;;;5096601;28;20867;-72
2020/12/24 06:38:37;;;;;;;1.20;0.50;;;;;;;;;;5095740;28;20525;-73
2020/12/24 06:41:22;;;;;;;1.40;0.70;;;;;;;;;;5094697;28;20455;-72
2020/12/24 06:43:49;;;;;;;1.20;0.50;;;;;;;;;;5080128;28;20464;-72
2020/12/24 06:46:16;;;;;;;1.30;0.50;;;;;;;;;;5096447;28;20455;-73
2020/12/24 06:48:59;;;;;;;1.60;0.60;;;;;;;;;;5095930;28;21111;-73
2020/12/24 06:51:26;;;;;;;1.50;0.60;;;;;;;;;;5096076;28;20810;-73
2020/12/24 06:53:54;;;;;;;1.20;0.50;;;;;;;;;;5095895;28;20494;-72
2020/12/24 06:56:27;;;;;;;1.20;0.50;;;;;;;;;;5096041;28;20525;-72
2020/12/24 06:58:58;;;;;;;1.30;0.50;;;;;;;;;;5096286;28;20475;-72
2020/12/24 07:01:27;;;;;;;1.60;0.50;;;;;;;;;;5093419;28;20448;-73
2020/12/24 07:03:55;;;;;;;1.30;0.50;;;;;;;;;;5095923;28;20516;-73
2020/12/24 07:06:41;;;;;;;1.30;0.50;;;;;;;;;;5095703;28;20456;-73
2020/12/24 07:09:08;;;;;;;1.73;0.97;;;;;;;;;;5096083;28;20876;-73
2020/12/24 07:11:44;;;;;;;2.07;0.70;;;;;;;;;;5096305;28;20456;-73
2020/12/24 07:14:27;;;;;;;1.30;0.60;;;;;;;;;;5096474;28;20464;-73
2020/12/24 07:16:54;;;;;;;2.23;0.60;;;;;;;;;;5096426;28;20452;-72
2020/12/24 07:19:22;;;;;;;1.97;0.70;;;;;;;;;;5096510;28;20471;-72
2020/12/24 07:21:50;;;;;;;1.57;0.70;;;;;;;;;;5096621;28;20521;-73
2020/12/24 07:24:17;;;;;;;2.13;0.70;;;;;;;;;;5100489;28;20467;-73
2020/12/24 07:26:53;;;;;;;1.70;0.70;;;;;;;;;;5100984;28;20459;-73
2020/12/24 07:29:21;;;;;;;1.90;1.10;;;;;;;;;;5100102;28;20493;-73
2020/12/24 07:31:48;;;;;;;2.10;1.20;;;;;;;;;;5100248;28;20456;-73
2020/12/24 07:34:15;;;;;;;2.40;1.20;;;;;;;;;;5099508;28;20456;-73
2020/12/24 07:36:45;;;;;;;1.40;0.80;;;;;;;;;;5098859;28;20459;-73
2020/12/24 07:39:13;;;;;;;3.10;0.80;;;;;;;;;;5100141;28;20464;-73
2020/12/24 07:41:41;;;;;;;2.00;1.07;;;;;;;;;;5099355;28;20471;-73
2020/12/24 07:44:12;;;;;;;1.63;0.90;;;;;;;;;;5100124;28;20471;-73
2020/12/24 07:46:40;;;;;;;2.00;1.00;;;;;;;;;;5100368;28;20529;-72
2020/12/24 07:49:07;;;;;;;1.50;0.70;;;;;;;;;;5099854;28;20464;-73
2020/12/24 07:51:34;;;;;;;2.10;1.20;;;;;;;;;;5095578;28;20488;-73
2020/12/24 07:54:08;;;;;;;1.80;0.87;;;;;;;;;;5078951;28;20487;-72
2020/12/24 07:56:36;;;;;;;1.63;0.90;;;;;;;;;;5079890;28;20452;-72
2020/12/24 07:59:04;;;;;;;1.60;0.80;;;;;;;;;;5079782;28;20533;-73
2020/12/24 08:01:32;;;;;;;1.73;0.90;;;;;;;;;;5078632;28;20460;-74
2020/12/24 08:04:00;;;;;;;1.80;0.90;;;;;;;;;;5079215;28;20468;-74
2020/12/24 08:06:28;;;;;;;1.83;1.10;;;;;;;;;;5080319;28;20457;-73
2020/12/24 08:09:09;;;;;;;1.80;1.00;;;;;;;;;;5079207;28;20461;-73
2020/12/24 08:11:36;;;;;;;1.80;0.90;;;;;;;;;;5079199;28;20531;-73
2020/12/24 08:14:05;;;;;;;1.70;0.90;;;;;;;;;;5078848;28;20715;-73
2020/12/24 08:16:36;;;;;;;2.30;1.20;;;;;;;;;;5089634;28;20864;-73
2020/12/24 08:19:08;;;;;;;1.70;0.93;;;;;;;;;;5098968;28;20464;-74
2020/12/24 08:21:38;;;;;;;2.20;1.43;;;;;;;;;;5098363;28;20864;-73
2020/12/24 08:24:08;;;;;;;2.07;1.00;;;;;;;;;;5097808;28;20463;-72
2020/12/24 08:26:36;;;;;;;2.10;1.10;;;;;;;;;;5098646;28;20455;-73
2020/12/24 08:29:05;;;;;;;1.87;1.20;;;;;;;;;;5098246;28;20468;-72
2020/12/24 08:31:40;;;;;;;1.80;1.00;;;;;;;;;;5097540;28;20557;-72
2020/12/24 08:34:11;;;;;;;1.90;1.10;;;;;;;;;;5097122;28;20491;-72
2020/12/24 08:36:42;;;;;;;1.60;1.00;;;;;;;;;;5098870;28;20464;-73
2020/12/24 08:39:11;;;;;;;2.33;1.23;;;;;;;;;;5099178;28;20468;-72
2020/12/24 08:41:40;;;;;;;1.53;1.00;;;;;;;;;;5095073;28;20469;-72
2020/12/24 08:44:07;;;;;;;1.83;1.07;;;;;;;;;;5090349;28;20767;-72
2020/12/24 08:46:35;;;;;;;4.20;1.20;;;;;;;;;;5077955;28;20457;-73
2020/12/24 08:49:22;;;;;;;2.03;1.03;;;;;;;;;;5078456;28;20469;-73
2020/12/24 08:51:50;;;;;;;1.93;1.10;;;;;;;;;;5083028;28;20791;-73
2020/12/24 08:54:18;;;;;;;1.70;0.90;;;;;;;;;;5078319;28;20469;-72
2020/12/24 08:56:45;;;;;;;2.20;1.20;;;;;;;;;;5078197;28;20938;-73
2020/12/24 08:59:14;;;;;;;3.03;1.00;;;;;;;;;;5078208;28;20568;-72
2020/12/24 09:01:42;;;;;;;2.47;1.00;;;;;;;;;;5077446;28;20525;-72
2020/12/24 09:04:13;;;;;;;2.47;1.60;;;;;;;;;;5077971;28;20472;-72
2020/12/24 09:06:41;;;;;;;2.23;1.37;;;;;;;;;;5076741;28;20932;-72
2020/12/24 09:09:08;;;;;;;3.37;1.87;;;;;;;;;;5074774;28;20465;-73
2020/12/24 09:11:36;;;;;;;2.63;1.20;;;;;;;;;;5076823;28;20491;-73
2020/12/24 09:14:04;;;;;;;2.40;1.60;;;;;;;;;;5076984;28;20472;-72
2020/12/24 09:16:31;;;;;;;2.97;1.43;;;;;;;;;;5075649;28;20881;-73
2020/12/24 09:19:05;;;;;;;2.60;1.77;;;;;;;;;;5076116;28;20882;-73
2020/12/24 09:21:33;;;;;;;3.20;1.97;;;;;;;;;;5076946;28;20764;-73
2020/12/24 09:24:08;;;;;;;2.60;1.50;;;;;;;;;;5077366;28;20727;-73
2020/12/24 09:26:42;;;;;;;3.67;1.90;;;;;;;;;;5076343;28;20483;-73
2020/12/24 09:29:09;;;;;;;2.63;1.60;;;;;;;;;;5076769;28;20471;-73
2020/12/24 09:31:36;;;;;;;3.40;2.30;;;;;;;;;;5076480;28;20561;-73
2020/12/24 09:34:04;;;;;;;3.00;1.73;;;;;;;;;;5076346;28;20465;-73
2020/12/24 09:36:31;;;;;;;3.40;2.07;;;;;;;;;;5076632;28;20457;-73
2020/12/24 09:38:58;;;;;;;4.17;2.27;;;;;;;;;;5075033;28;20453;-73
2020/12/24 09:41:26;;;;;;;6.60;2.00;;;;;;;;;;5075815;28;20465;-73
2020/12/24 09:43:54;;;;;;;3.93;2.17;;;;;;;;;;5076372;28;20471;-73
2020/12/24 09:46:21;;;;;;;3.73;2.40;;;;;;;;;;5074445;28;20453;-73
2020/12/24 09:48:48;;;;;;;3.67;2.10;;;;;;;;;;5075950;28;20575;-72
2020/12/24 09:51:16;;;;;;;3.13;2.00;;;;;;;;;;5076920;28;20526;-73
2020/12/24 09:53:43;;;;;;;3.63;1.80;;;;;;;;;;5076434;28;20461;-72
2020/12/24 09:56:10;;;;;;;6.00;2.67;;;;;;;;;;5094791;28;20488;-72
2020/12/24 09:58:39;;;;;;;7.00;2.43;;;;;;;;;;5096781;28;20460;-72
2020/12/24 10:01:06;;;;;;;4.90;2.70;;;;;;;;;;5095908;28;20460;-72
2020/12/24 10:03:33;;;;;;;4.57;3.20;;;;;;;;;;5096092;28;20470;-72
2020/12/24 10:06:01;;;;;;;4.50;2.20;;;;;;;;;;5096091;28;20741;-72
2020/12/24 10:08:28;;;;;;;5.13;3.30;;;;;;;;;;5095022;28;20829;-72
2020/12/24 10:10:55;;;;;;;5.00;2.40;;;;;;;;;;5096428;28;20499;-72
2020/12/24 10:13:22;;;;;;;4.87;2.93;;;;;;;;;;5096132;28;20726;-72
2020/12/24 10:15:51;;;;;;;4.57;3.00;;;;;;;;;;5094921;28;20456;-72
2020/12/24 10:18:22;;;;;;;5.43;3.27;;;;;;;;;;5095088;28;20475;-73
2020/12/24 10:20:54;;;;;;;4.67;3.03;;;;;;;;;;5095957;28;20488;-73
2020/12/24 10:23:21;;;;;;;4.90;2.90;;;;;;;;;;5095993;28;20495;-72
2020/12/24 10:25:48;;;;;;;5.40;3.23;;;;;;;;;;5094821;28;20452;-72
2020/12/24 10:28:17;;;;;;;6.30;3.23;;;;;;;;;;5094594;28;20464;-72
2020/12/24 10:30:44;;;;;;;10.43;3.90;;;;;;;;;;5078199;28;20796;-72
2020/12/24 10:33:13;;;;;;;5.73;3.27;;;;;;;;;;5090471;28;21157;-72
2020/12/24 10:35:41;;;;;;;8.50;3.23;;;;;;;;;;5095114;28;20490;-72
2020/12/24 10:38:08;;;;;;;7.27;3.57;;;;;;;;;;5095116;28;20749;-72
2020/12/24 10:40:36;;;;;;;3.50;2.23;;;;;;;;;;5094958;28;20456;-72
2020/12/24 10:43:04;;;;;;;3.80;2.20;;;;;;;;;;5093923;28;20535;-72
2020/12/24 10:45:31;;;;;;;3.93;2.63;;;;;;;;;;5093403;28;20734;-72
2020/12/24 10:47:59;;;;;;;13.20;3.30;;;;;;;;;;5094768;28;20546;-72
2020/12/24 10:50:27;;;;;;;4.60;2.60;;;;;;;;;;5094245;28;20483;-72
2020/12/24 10:52:54;;;;;;;5.47;2.43;;;;;;;;;;5095477;28;20456;-72
2020/12/24 10:55:25;;;;;;;3.30;2.60;;;;;;;;;;5090277;28;20449;-73
2020/12/24 10:57:53;;;;;;;3.27;2.30;;;;;;;;;;5095172;28;20892;-72
2020/12/24 11:00:20;;;;;;;3.50;2.90;;;;;;;;;;5094474;28;20455;-73
2020/12/24 11:02:48;;;;;;;5.80;2.43;;;;;;;;;;5093757;28;20464;-72
2020/12/24 11:05:15;;;;;;;3.83;2.80;;;;;;;;;;5095092;28;20755;-72
2020/12/24 11:07:43;;;;;;;5.03;2.90;;;;;;;;;;5094542;28;20463;-72
2020/12/24 11:10:11;;;;;;;4.63;3.10;;;;;;;;;;5095901;28;20484;-72
2020/12/24 11:12:38;;;;;;;3.17;2.63;;;;;;;;;;5095629;28;20452;-72
2020/12/24 11:15:05;;;;;;;3.80;2.83;;;;;;;;;;5095063;28;20444;-72
2020/12/24 11:17:33;;;;;;;5.00;2.80;;;;;;;;;;5094446;28;20491;-72
2020/12/24 11:20:00;;;;;;;6.47;2.90;;;;;;;;;;5095265;28;20726;-72
2020/12/24 11:22:27;;;;;;;8.13;3.30;;;;;;;;;;5095333;28;20456;-72
2020/12/24 11:24:55;;;;;;;3.57;2.43;;;;;;;;;;5095961;28;20474;-72
2020/12/24 11:27:23;;;;;;;3.77;2.87;;;;;;;;;;5095562;28;20520;-72
2020/12/24 11:29:50;;;;;;;5.53;2.50;;;;;;;;;;5094524;28;20800;-72
2020/12/24 11:32:18;;;;;;;3.93;3.33;;;;;;;;;;5094349;28;20732;-72
2020/12/24 11:34:45;;;;;;;9.23;3.57;;;;;;;;;;5095652;28;20492;-72
2020/12/24 11:37:12;;;;;;;6.63;3.53;;;;;;;;;;5095404;28;20786;-72
2020/12/24 11:39:39;;;;;;;5.30;3.77;;;;;;;;;;5080536;28;20441;-73
2020/12/24 11:42:10;;;;;;;5.87;3.50;;;;;;;;;;5074575;28;20468;-72
2020/12/24 11:44:38;;;;;;;4.93;3.53;;;;;;;;;;5074000;28;20480;-72
2020/12/24 11:47:06;;;;;;;4.80;2.73;;;;;;;;;;5082005;28;20448;-71
2020/12/24 11:49:33;;;;;;;6.23;3.30;;;;;;;;;;5073947;28;20456;-72
2020/12/24 11:52:04;;;;;;;6.30;3.90;;;;;;;;;;5058386;28;20453;-71
2020/12/24 11:54:31;;;;;;;6.03;3.40;;;;;;;;;;5075245;28;20526;-71
2020/12/24 11:57:00;;;;;;;4.37;2.93;;;;;;;;;;5085738;28;20506;-72
2020/12/24 11:59:28;;;;;;;6.63;3.50;;;;;;;;;;5093694;28;20711;-72
2020/12/24 12:01:56;;;;;;;7.40;4.10;;;;;;;;;;5084731;28;20542;-72
2020/12/24 12:04:23;;;;;;;8.00;3.73;;;;;;;;;;5073308;28;20448;-72
2020/12/24 12:06:51;;;;;;;7.43;4.30;;;;;;;;;;5074046;28;20908;-72
2020/12/24 12:09:21;;;;;;;5.43;3.90;;;;;;;;;;5073584;28;20449;-74
2020/12/24 12:11:49;;;;;;;11.97;6.00;;;;;;;;;;5081083;28;20738;-72
2020/12/24 12:14:16;;;;;;;9.80;5.50;;;;;;;;;;5079759;28;20522;-72
2020/12/24 12:16:47;;;;;;;9.97;6.53;;;;;;;;;;5077577;28;20744;-73
2020/12/24 12:19:15;;;;;;;11.10;5.73;;;;;;;;;;5077921;28;20484;-72
2020/12/24 12:21:44;;;;;;;10.10;6.97;;;;;;;;;;5077783;28;20456;-72
2020/12/24 12:24:12;;;;;;;13.27;7.40;;;;;;;;;;5078100;28;20452;-72
2020/12/24 12:26:40;;;;;;;14.63;8.90;;;;;;;;;;5077728;28;20453;-72
2020/12/24 12:29:09;;;;;;;12.83;8.40;;;;;;;;;;5077699;28;20526;-72
2020/12/24 12:31:38;;;;;;;12.17;8.10;;;;;;;;;;5077358;28;20480;-72
2020/12/24 12:34:06;;;;;;;14.60;8.63;;;;;;;;;;5078779;28;20465;-72
2020/12/24 12:36:33;;;;;;;15.47;8.50;;;;;;;;;;5077720;28;20861;-72
2020/12/24 12:39:01;;;;;;;17.80;7.87;;;;;;;;;;5076407;28;20829;-72
2020/12/24 12:41:28;;;;;;;12.83;7.93;;;;;;;;;;5077236;28;20807;-72
2020/12/24 12:43:55;;;;;;;14.20;9.33;;;;;;;;;;5076949;28;20457;-72
2020/12/24 12:46:25;;;;;;;18.90;8.40;;;;;;;;;;5077622;28;20480;-72
2020/12/24 12:48:53;;;;;;;13.83;9.23;;;;;;;;;;5076778;28;20453;-72
2020/12/24 12:51:21;;;;;;;15.03;9.40;;;;;;;;;;5080402;28;20552;-72
2020/12/24 12:53:48;;;;;;;17.10;8.57;;;;;;;;;;5087930;28;20841;-72
2020/12/24 12:56:22;;;;;;;16.27;10.73;;;;;;;;;;5083550;28;21397;-72
2020/12/24 12:58:50;;;;;;;15.80;9.07;;;;;;;;;;5081320;28;20460;-72
2020/12/24 13:01:18;;;;;;;12.80;9.07;;;;;;;;;;5085239;28;20460;-72
2020/12/24 13:03:45;;;;;;;13.13;7.70;;;;;;;;;;5078582;28;20472;-72
2020/12/24 13:06:16;;;;;;;12.27;8.30;;;;;;;;;;5078947;28;20483;-72
2020/12/24 13:08:46;;;;;;;14.97;7.77;;;;;;;;;;5078080;28;20465;-72
2020/12/24 13:11:13;;;;;;;13.23;8.30;;;;;;;;;;5077330;28;20484;-72
2020/12/24 13:13:40;;;;;;;14.03;8.60;;;;;;;;;;5077635;28;20465;-72
2020/12/24 13:16:08;;;;;;;13.03;8.13;;;;;;;;;;5077990;28;20457;-72
2020/12/24 13:18:35;;;;;;;13.13;8.47;;;;;;;;;;5077810;28;20475;-72
2020/12/24 13:21:02;;;;;;;12.03;8.60;;;;;;;;;;5077744;28;20464;-72
2020/12/24 13:23:30;;;;;;;14.40;8.70;;;;;;;;;;5077710;28;20815;-72
2020/12/24 13:26:01;;;;;;;13.43;8.80;;;;;;;;;;5075865;28;20466;-72
2020/12/24 13:28:28;;;;;;;12.43;7.60;;;;;;;;;;5077854;28;20873;-72
2020/12/24 13:30:56;;;;;;;18.80;9.27;;;;;;;;;;5077159;28;20912;-72
2020/12/24 13:33:23;;;;;;;17.43;9.90;;;;;;;;;;5078375;28;20457;-72
2020/12/24 13:35:50;;;;;;;14.60;10.03;;;;;;;;;;5077732;28;20465;-72
2020/12/24 13:38:17;;;;;;;14.90;9.13;;;;;;;;;;5077611;28;20468;-72
2020/12/24 13:40:45;;;;;;;18.37;9.40;;;;;;;;;;5077536;28;20479;-72
2020/12/24 13:43:13;;;;;;;14.93;10.07;;;;;;;;;;5078193;28;20457;-72
2020/12/24 13:45:40;;;;;;;14.00;9.37;;;;;;;;;;5077044;28;20570;-72
2020/12/24 13:48:07;;;;;;;17.83;10.30;;;;;;;;;;5077492;28;20453;-72
2020/12/24 13:50:35;;;;;;;15.33;10.57;;;;;;;;;;5076473;28;20769;-72
2020/12/24 13:53:02;;;;;;;23.93;11.63;;;;;;;;;;5075718;28;20789;-72
2020/12/24 13:55:31;;;;;;;16.00;10.47;;;;;;;;;;5076796;28;20468;-72
2020/12/24 13:57:59;;;;;;;13.27;10.20;;;;;;;;;;5076613;28;20471;-72
2020/12/24 14:00:27;;;;;;;17.33;11.27;;;;;;;;;;5075433;28;20790;-72
2020/12/24 14:02:59;;;;;;;15.97;10.70;;;;;;;;;;5075752;28;20453;-73
2020/12/24 14:05:27;;;;;;;15.57;10.17;;;;;;;;;;5076759;28;20963;-72
2020/12/24 14:07:55;;;;;;;18.67;11.67;;;;;;;;;;5088477;28;20533;-72
2020/12/24 14:10:22;;;;;;;17.00;11.40;;;;;;;;;;5096294;28;20587;-72
2020/12/24 14:12:51;;;;;;;18.80;11.97;;;;;;;;;;5096587;28;20456;-73
2020/12/24 14:15:18;;;;;;;18.27;11.13;;;;;;;;;;5096169;28;20761;-73
2020/12/24 14:17:46;;;;;;;26.00;13.43;;;;;;;;;;5095741;28;20461;-72
2020/12/24 14:20:14;;;;;;;23.30;15.77;;;;;;;;;;5095347;28;20483;-72
2020/12/24 14:22:41;;;;;;;23.40;14.33;;;;;;;;;;5095235;28;20522;-72
2020/12/24 14:25:08;;;;;;;23.07;16.10;;;;;;;;;;5096351;28;20471;-72
2020/12/24 14:27:36;;;;;;;19.93;12.83;;;;;;;;;;5096525;28;20464;-72
2020/12/24 14:30:03;;;;;;;21.73;12.10;;;;;;;;;;5095786;28;20545;-72
2020/12/24 14:32:33;;;;;;;24.73;14.30;;;;;;;;;;5094687;28;20463;-71
2020/12/24 14:35:01;;;;;;;20.40;12.70;;;;;;;;;;5094752;28;20459;-71
2020/12/24 14:37:28;;;;;;;23.37;13.93;;;;;;;;;;5095356;28;20451;-71
2020/12/24 14:39:56;;;;;;;24.27;14.37;;;;;;;;;;5093999;28;20474;-71
2020/12/24 14:42:24;;;;;;;17.17;10.83;;;;;;;;;;5094632;28;20448;-71
2020/12/24 14:44:53;;;;;;;20.73;12.50;;;;;;;;;;5089950;28;20945;-71
2020/12/24 14:47:21;;;;;;;17.50;11.70;;;;;;;;;;5094199;28;20864;-73
2020/12/24 14:49:48;;;;;;;19.57;10.80;;;;;;;;;;5095664;28;20561;-72